Time;durP1;ratioP1;P1;durP2;ratioP2;P2;SDS_P1;SDS_P2;PMS_P1;PMS_P2;Temp;Humidity;BMP_temperature;BMP_pressure;BME280_temperature;BME280_humidity;BME280_pressure;Samples;Min_cycle;Max_cycle;Signal;HPM_P1;HPM_P2
2021/07/03 00:01:14;;;;;;;6.43;4.18;;;17.80;88.60;;;;;;5113269;28;20048;-86
2021/07/03 00:03:40;;;;;;;6.88;4.53;;;17.80;88.80;;;;;;5114093;27;20082;-87
2021/07/03 00:06:06;;;;;;;7.45;4.43;;;17.70;88.90;;;;;;5132778;27;20130;-86
2021/07/03 00:08:32;;;;;;;8.02;4.60;;;17.70;88.90;;;;;;5133879;27;20123;-86
2021/07/03 00:11:02;;;;;;;6.82;3.97;;;17.60;88.80;;;;;;5133194;27;20043;-86
2021/07/03 00:13:28;;;;;;;7.32;4.57;;;17.60;88.70;;;;;;5129068;27;20047;-87
2021/07/03 00:15:54;;;;;;;7.70;4.50;;;17.50;88.80;;;;;;5132250;27;20053;-87
2021/07/03 00:18:20;;;;;;;8.48;4.10;;;17.50;89.00;;;;;;5132928;27;20130;-86
2021/07/03 00:20:45;;;;;;;6.95;4.18;;;17.40;88.90;;;;;;5133114;27;20172;-87
2021/07/03 00:23:11;;;;;;;6.95;4.40;;;17.40;88.90;;;;;;5133819;27;20047;-87
2021/07/03 00:25:37;;;;;;;6.72;4.25;;;17.30;89.60;;;;;;5113472;27;20044;-86
2021/07/03 00:28:05;;;;;;;6.72;4.00;;;17.30;89.10;;;;;;5112573;28;20055;-87
2021/07/03 00:30:32;;;;;;;7.13;3.95;;;17.30;89.10;;;;;;5113186;28;20062;-86
2021/07/03 00:32:58;;;;;;;7.47;4.10;;;17.20;89.20;;;;;;5113651;28;20044;-87
2021/07/03 00:35:24;;;;;;;7.18;4.30;;;17.20;89.20;;;;;;5128173;27;20082;-85
2021/07/03 00:37:50;;;;;;;7.57;4.30;;;17.10;89.20;;;;;;5133488;28;20483;-87
2021/07/03 00:40:16;;;;;;;7.38;4.45;;;17.10;89.30;;;;;;5132984;28;20409;-86
2021/07/03 00:42:42;;;;;;;8.73;4.53;;;17.00;89.30;;;;;;5133229;28;20057;-86
2021/07/03 00:45:10;;;;;;;7.00;4.00;;;17.00;89.40;;;;;;5133816;28;20043;-86
2021/07/03 00:47:36;;;;;;;6.00;3.80;;;17.00;89.70;;;;;;5132888;28;20387;-86
2021/07/03 00:50:05;;;;;;;6.32;4.20;;;17.00;90.00;;;;;;5133996;28;20035;-86
2021/07/03 00:52:30;;;;;;;7.80;4.60;;;16.90;90.00;;;;;;5133304;28;20054;-86
2021/07/03 00:54:58;;;;;;;7.13;4.70;;;16.90;90.00;;;;;;5133086;28;20043;-86
2021/07/03 00:57:24;;;;;;;6.80;4.38;;;16.80;90.10;;;;;;5133581;28;20051;-86
2021/07/03 00:59:49;;;;;;;6.72;4.38;;;16.80;90.00;;;;;;5133752;28;20175;-86
2021/07/03 01:02:18;;;;;;;7.38;4.50;;;16.80;90.00;;;;;;5133291;28;20490;-86
2021/07/03 01:04:44;;;;;;;6.32;4.00;;;16.70;90.00;;;;;;5123856;28;20130;-86
2021/07/03 01:07:11;;;;;;;5.60;4.10;;;16.70;90.10;;;;;;5114239;28;20058;-86
2021/07/03 01:09:37;;;;;;;7.22;4.30;;;16.70;90.10;;;;;;5112731;28;20128;-87
2021/07/03 01:12:05;;;;;;;6.25;4.30;;;16.60;90.00;;;;;;5115304;28;20089;-86
2021/07/03 01:14:31;;;;;;;6.25;3.95;;;16.60;90.10;;;;;;5114285;28;20495;-87
2021/07/03 01:16:57;;;;;;;6.68;3.60;;;16.60;90.20;;;;;;5111757;28;20051;-87
2021/07/03 01:19:23;;;;;;;6.22;3.90;;;16.60;90.10;;;;;;5109982;28;20054;-86
2021/07/03 01:21:50;;;;;;;6.68;3.83;;;16.50;90.00;;;;;;5110496;28;20399;-86
2021/07/03 01:24:17;;;;;;;7.63;4.10;;;16.50;90.00;;;;;;5120650;27;20063;-86
2021/07/03 01:26:45;;;;;;;6.07;3.75;;;16.50;90.00;;;;;;5135073;27;20449;-86
2021/07/03 01:29:11;;;;;;;6.03;3.97;;;16.40;90.10;;;;;;5137242;27;20085;-86
2021/07/03 01:31:42;;;;;;;8.48;4.47;;;16.40;90.10;;;;;;5136290;27;20039;-86
2021/07/03 01:34:09;;;;;;;7.68;4.82;;;16.30;90.00;;;;;;5127274;27;20071;-85
2021/07/03 01:36:35;;;;;;;7.07;4.53;;;16.30;90.10;;;;;;5115190;28;20541;-85
2021/07/03 01:39:01;;;;;;;6.97;4.43;;;16.20;90.00;;;;;;5115945;28;20078;-86
2021/07/03 01:41:26;;;;;;;8.18;5.03;;;16.20;90.10;;;;;;5115824;28;20063;-85
2021/07/03 01:43:52;;;;;;;7.28;4.75;;;16.20;90.00;;;;;;5124724;27;20406;-85
2021/07/03 01:46:18;;;;;;;6.47;4.57;;;16.10;90.00;;;;;;5137016;27;20047;-86
2021/07/03 01:48:43;;;;;;;8.75;5.18;;;16.10;90.00;;;;;;5136472;27;20096;-85
2021/07/03 01:51:09;;;;;;;8.82;4.82;;;16.10;90.00;;;;;;5135815;27;20039;-86
2021/07/03 01:53:35;;;;;;;8.35;4.70;;;16.00;90.20;;;;;;5134596;27;20052;-86
2021/07/03 01:56:00;;;;;;;8.38;5.43;;;16.00;90.20;;;;;;5136286;27;20050;-86
2021/07/03 01:58:27;;;;;;;8.98;5.10;;;16.00;90.60;;;;;;5135646;27;20095;-87
2021/07/03 02:00:58;;;;;;;7.72;5.22;;;15.90;90.30;;;;;;5136808;27;20039;-87
2021/07/03 02:03:24;;;;;;;8.20;5.28;;;15.90;90.40;;;;;;5128132;27;20059;-87
2021/07/03 02:05:51;;;;;;;7.95;5.10;;;15.80;90.50;;;;;;5114806;28;20044;-87
2021/07/03 02:08:16;;;;;;;7.93;4.97;;;15.80;90.50;;;;;;5115665;28;20086;-87
2021/07/03 02:10:42;;;;;;;8.05;4.95;;;15.80;90.60;;;;;;5115429;28;20043;-86
2021/07/03 02:13:08;;;;;;;6.88;4.32;;;15.80;90.60;;;;;;5115218;28;20047;-87
2021/07/03 02:15:34;;;;;;;7.65;4.97;;;15.80;90.60;;;;;;5115403;28;20052;-85
2021/07/03 02:18:01;;;;;;;7.30;4.65;;;15.70;90.60;;;;;;5115537;28;20052;-87
2021/07/03 02:20:27;;;;;;;7.65;4.50;;;15.70;90.60;;;;;;5114540;28;20510;-86
2021/07/03 02:22:54;;;;;;;6.30;4.22;;;15.70;90.60;;;;;;5120606;27;20047;-87
2021/07/03 02:25:20;;;;;;;6.13;3.88;;;15.70;90.60;;;;;;5134619;27;20127;-86
2021/07/03 02:27:46;;;;;;;8.60;4.53;;;15.60;90.60;;;;;;5133159;27;20138;-87
2021/07/03 02:30:14;;;;;;;7.18;4.00;;;15.60;90.60;;;;;;5133699;27;20047;-86
2021/07/03 02:32:41;;;;;;;7.07;3.80;;;15.60;90.60;;;;;;5133996;27;20057;-86
2021/07/03 02:35:09;;;;;;;5.70;4.07;;;15.50;90.50;;;;;;5114998;28;20093;-86
2021/07/03 02:37:35;;;;;;;5.65;3.78;;;15.50;90.60;;;;;;5114278;28;20056;-87
2021/07/03 02:40:01;;;;;;;5.63;3.80;;;15.50;90.60;;;;;;5114490;28;20047;-87
2021/07/03 02:42:26;;;;;;;6.35;3.70;;;15.50;90.50;;;;;;5118340;27;20035;-87
2021/07/03 02:44:52;;;;;;;6.85;3.90;;;15.40;90.50;;;;;;5135857;27;20085;-85
2021/07/03 02:47:17;;;;;;;4.90;3.30;;;15.40;90.50;;;;;;5135078;27;20131;-86
2021/07/03 02:49:43;;;;;;;6.13;3.47;;;15.30;90.50;;;;;;5135284;27;20047;-86
2021/07/03 02:52:09;;;;;;;5.78;3.70;;;15.30;90.40;;;;;;5135557;27;20058;-86
2021/07/03 02:54:34;;;;;;;5.75;3.42;;;15.30;90.50;;;;;;5134802;27;20480;-86
2021/07/03 02:57:00;;;;;;;6.60;3.70;;;15.20;90.60;;;;;;5135628;27;20165;-85
2021/07/03 02:59:27;;;;;;;6.00;3.28;;;15.20;90.50;;;;;;5134404;27;20518;-86
2021/07/03 03:01:52;;;;;;;7.65;3.80;;;15.20;90.60;;;;;;5132953;27;20050;-85
2021/07/03 03:04:19;;;;;;;5.30;3.38;;;15.10;90.40;;;;;;5135343;27;20050;-86
2021/07/03 03:06:45;;;;;;;6.10;3.17;;;15.10;90.60;;;;;;5134953;27;20047;-85
2021/07/03 03:09:11;;;;;;;6.30;3.67;;;15.10;90.40;;;;;;5134696;27;20379;-86
2021/07/03 03:11:37;;;;;;;5.18;3.35;;;15.10;90.50;;;;;;5134809;27;20050;-85
2021/07/03 03:14:03;;;;;;;4.90;3.15;;;15.10;90.60;;;;;;5134937;27;20130;-86
2021/07/03 03:16:29;;;;;;;6.50;3.40;;;15.00;90.70;;;;;;5133992;27;20487;-86
2021/07/03 03:18:55;;;;;;;7.28;3.13;;;15.00;90.80;;;;;;5135025;27;20092;-86
2021/07/03 03:21:22;;;;;;;6.20;3.17;;;15.00;90.80;;;;;;5134737;27;20047;-86
2021/07/03 03:23:47;;;;;;;6.60;3.35;;;15.00;90.80;;;;;;5114091;27;20062;-86
2021/07/03 03:26:13;;;;;;;6.97;3.38;;;14.90;90.80;;;;;;5114615;28;20453;-87
2021/07/03 03:28:39;;;;;;;6.25;3.50;;;14.90;90.90;;;;;;5114042;28;20130;-86
2021/07/03 03:31:05;;;;;;;6.88;3.25;;;14.90;90.90;;;;;;5112913;28;20501;-86
2021/07/03 03:33:31;;;;;;;5.38;3.47;;;14.80;90.80;;;;;;5125700;27;20055;-85
2021/07/03 03:35:57;;;;;;;5.85;3.20;;;14.80;90.80;;;;;;5132601;27;20501;-86
2021/07/03 03:38:27;;;;;;;7.35;3.10;;;14.80;90.80;;;;;;5112415;28;20491;-86
2021/07/03 03:40:53;;;;;;;5.78;3.35;;;14.80;90.80;;;;;;5119665;27;20058;-86
2021/07/03 03:43:19;;;;;;;5.38;3.30;;;14.80;90.80;;;;;;5113503;27;20142;-88
2021/07/03 03:45:45;;;;;;;4.93;3.55;;;14.70;90.80;;;;;;5113815;28;20040;-86
2021/07/03 03:48:11;;;;;;;5.45;3.40;;;14.70;90.80;;;;;;5112798;28;20044;-86
2021/07/03 03:50:37;;;;;;;5.43;3.45;;;14.70;90.70;;;;;;5112617;28;20055;-85
2021/07/03 03:53:03;;;;;;;5.28;3.25;;;14.60;90.80;;;;;;5113917;28;20047;-86
2021/07/03 03:55:29;;;;;;;5.45;3.08;;;14.60;90.70;;;;;;5113574;28;20050;-86
2021/07/03 03:57:55;;;;;;;5.30;3.35;;;14.60;90.80;;;;;;5112978;28;20044;-86
2021/07/03 04:00:22;;;;;;;6.15;3.22;;;14.60;90.70;;;;;;5113741;28;20044;-85
2021/07/03 04:02:48;;;;;;;7.60;3.30;;;14.50;90.80;;;;;;5114580;27;20051;-86
2021/07/03 04:05:15;;;;;;;4.85;3.05;;;14.50;90.80;;;;;;5112731;28;20100;-86
2021/07/03 04:07:42;;;;;;;5.95;3.58;;;14.50;90.80;;;;;;5113533;28;20130;-85
2021/07/03 04:10:09;;;;;;;5.10;3.35;;;14.50;91.10;;;;;;5113773;28;20050;-85
2021/07/03 04:12:36;;;;;;;4.80;3.13;;;14.50;90.70;;;;;;5111853;28;20490;-85
2021/07/03 04:15:03;;;;;;;6.18;3.38;;;14.40;90.70;;;;;;5113531;28;20055;-85
2021/07/03 04:17:29;;;;;;;5.53;3.08;;;14.40;90.60;;;;;;5120996;27;20051;-86
2021/07/03 04:19:55;;;;;;;5.75;3.47;;;14.40;90.50;;;;;;5132813;27;20059;-85
2021/07/03 04:22:20;;;;;;;5.32;3.20;;;14.40;90.60;;;;;;5134145;27;20043;-85
2021/07/03 04:24:46;;;;;;;5.00;3.05;;;14.40;90.70;;;;;;5133599;27;20120;-85
2021/07/03 04:27:12;;;;;;;4.50;3.05;;;14.30;90.60;;;;;;5133109;27;20047;-85
2021/07/03 04:29:38;;;;;;;4.57;3.05;;;14.40;90.80;;;;;;5133566;27;20058;-86
2021/07/03 04:32:04;;;;;;;5.90;2.90;;;14.40;90.80;;;;;;5124218;27;20047;-86
2021/07/03 04:34:31;;;;;;;4.53;2.80;;;14.30;90.70;;;;;;5112331;28;20052;-85
2021/07/03 04:36:58;;;;;;;6.78;3.20;;;14.30;90.70;;;;;;5113315;28;20044;-86
2021/07/03 04:39:24;;;;;;;5.32;3.03;;;14.30;90.80;;;;;;5127330;28;20051;-85
2021/07/03 04:41:50;;;;;;;5.38;2.80;;;14.30;90.90;;;;;;5132801;28;20517;-85
2021/07/03 04:44:17;;;;;;;7.00;3.10;;;14.30;90.90;;;;;;5132390;28;20045;-86
2021/07/03 04:46:43;;;;;;;5.35;3.05;;;14.30;90.90;;;;;;5132276;28;20059;-86
2021/07/03 04:49:09;;;;;;;5.13;3.08;;;14.30;90.90;;;;;;5133442;28;20478;-86
2021/07/03 04:51:36;;;;;;;4.85;3.10;;;14.30;91.00;;;;;;5133364;28;20071;-86
2021/07/03 04:54:02;;;;;;;6.95;3.17;;;14.30;90.70;;;;;;5121186;28;20388;-87
2021/07/03 04:56:28;;;;;;;5.65;3.33;;;14.30;90.80;;;;;;5123869;28;20043;-89
2021/07/03 04:58:54;;;;;;;6.38;3.20;;;14.30;90.80;;;;;;5122657;28;20112;-91
2021/07/03 05:01:19;;;;;;;5.57;3.50;;;14.30;90.80;;;;;;5124375;27;20064;-88
2021/07/03 05:03:45;;;;;;;6.97;3.05;;;14.30;91.00;;;;;;5128398;27;20078;-89
2021/07/03 05:06:11;;;;;;;6.15;3.53;;;14.30;90.70;;;;;;5128549;27;20043;-89
2021/07/03 05:08:37;;;;;;;5.72;3.65;;;14.30;90.50;;;;;;5128019;27;20055;-89
2021/07/03 05:11:03;;;;;;;5.30;3.60;;;14.30;90.70;;;;;;5128791;27;20135;-88
2021/07/03 05:13:29;;;;;;;6.25;4.03;;;14.30;90.70;;;;;;5131364;27;20042;-90
2021/07/03 05:15:54;;;;;;;5.72;3.33;;;14.30;90.90;;;;;;5130426;27;20046;-88
2021/07/03 05:18:20;;;;;;;7.20;3.58;;;14.30;91.00;;;;;;5125986;27;20040;-89
2021/07/03 05:20:46;;;;;;;5.43;3.42;;;14.40;91.10;;;;;;5125510;27;20044;-89
2021/07/03 05:23:12;;;;;;;6.20;3.97;;;14.40;91.20;;;;;;5125061;27;20134;-88
2021/07/03 05:25:41;;;;;;;5.88;3.63;;;14.40;91.20;;;;;;5126968;27;20049;-89
2021/07/03 05:28:07;;;;;;;7.72;4.00;;;14.40;91.10;;;;;;5125188;27;20048;-88
2021/07/03 05:30:33;;;;;;;5.78;3.90;;;14.50;91.20;;;;;;5126599;27;20059;-88
2021/07/03 05:33:03;;;;;;;6.10;3.85;;;14.50;91.10;;;;;;5124802;27;20047;-89
2021/07/03 05:35:29;;;;;;;7.35;4.25;;;14.60;91.30;;;;;;5131103;27;20085;-89
2021/07/03 05:37:55;;;;;;;7.90;3.95;;;14.60;91.30;;;;;;5123430;27;20415;-89
2021/07/03 05:40:21;;;;;;;6.45;3.92;;;14.70;91.30;;;;;;5127328;27;20028;-89
2021/07/03 05:42:47;;;;;;;6.60;4.18;;;14.70;91.30;;;;;;5126454;27;20582;-88
2021/07/03 05:45:14;;;;;;;8.20;4.28;;;14.70;91.20;;;;;;5124367;27;20130;-87
2021/07/03 05:47:42;;;;;;;7.22;4.47;;;14.80;91.20;;;;;;5126368;27;20044;-88
2021/07/03 05:50:08;;;;;;;5.60;3.72;;;14.80;91.30;;;;;;5123488;27;20186;-89
2021/07/03 05:52:33;;;;;;;6.22;3.83;;;14.80;91.20;;;;;;5128644;27;20508;-89
2021/07/03 05:54:59;;;;;;;6.20;4.10;;;14.90;91.20;;;;;;5138084;27;20050;-93
2021/07/03 05:57:27;;;;;;;6.38;4.00;;;14.90;91.10;;;;;;5131311;27;20043;-91
2021/07/03 05:59:53;;;;;;;8.35;4.30;;;14.90;91.10;;;;;;5112376;27;20047;-89
2021/07/03 06:02:19;;;;;;;7.10;3.80;;;15.00;91.20;;;;;;5126674;27;20099;-91
2021/07/03 06:04:45;;;;;;;9.38;4.10;;;15.10;91.10;;;;;;5135305;27;20040;-87
2021/07/03 06:07:10;;;;;;;9.38;4.43;;;15.10;91.20;;;;;;5135290;27;20134;-90
2021/07/03 06:09:37;;;;;;;6.30;3.90;;;15.10;91.20;;;;;;5127135;27;20111;-90
2021/07/03 06:12:04;;;;;;;7.95;3.85;;;15.20;91.30;;;;;;5129208;27;20196;-89
2021/07/03 06:14:30;;;;;;;7.00;4.05;;;15.30;91.20;;;;;;5121954;27;20529;-87
2021/07/03 06:16:58;;;;;;;9.48;4.63;;;15.30;91.20;;;;;;5124667;27;20035;-90
2021/07/03 06:19:24;;;;;;;6.55;3.67;;;15.40;91.30;;;;;;5127267;27;20054;-89
2021/07/03 06:21:50;;;;;;;9.98;4.60;;;15.40;91.30;;;;;;5124951;27;20047;-88
2021/07/03 06:24:16;;;;;;;8.27;4.20;;;15.40;91.30;;;;;;5126274;27;20050;-90
2021/07/03 06:26:42;;;;;;;9.20;4.25;;;15.50;91.10;;;;;;5126458;27;20067;-90
2021/07/03 06:29:09;;;;;;;9.05;3.92;;;15.60;91.40;;;;;;5125519;27;20128;-91
2021/07/03 06:31:35;;;;;;;8.35;4.03;;;15.70;91.50;;;;;;5129469;27;20585;-90
2021/07/03 06:34:00;;;;;;;6.78;3.78;;;15.80;91.30;;;;;;5131711;27;20043;-90
2021/07/03 06:36:29;;;;;;;8.05;3.90;;;15.90;91.10;;;;;;5139944;27;20054;-89
2021/07/03 06:38:55;;;;;;;7.70;3.95;;;16.00;90.90;;;;;;5107547;27;20498;-90
2021/07/03 06:41:22;;;;;;;7.88;3.85;;;16.10;90.80;;;;;;5130619;27;20050;-88
2021/07/03 06:43:47;;;;;;;6.65;3.45;;;16.20;90.70;;;;;;5127815;27;20043;-86
2021/07/03 06:46:13;;;;;;;11.02;4.25;;;16.20;90.70;;;;;;5123939;27;20043;-87
2021/07/03 06:48:38;;;;;;;9.82;3.90;;;16.30;91.00;;;;;;5126560;27;20039;-87
2021/07/03 06:51:07;;;;;;;11.23;4.60;;;16.40;91.00;;;;;;5123979;27;20054;-88
2021/07/03 06:53:32;;;;;;;6.15;3.50;;;16.40;91.10;;;;;;5125414;27;20056;-87
2021/07/03 06:55:58;;;;;;;6.43;3.40;;;16.50;90.80;;;;;;5132236;27;20051;-85
2021/07/03 06:58:23;;;;;;;6.90;3.13;;;16.60;90.50;;;;;;5114979;28;20056;-85
2021/07/03 07:00:49;;;;;;;7.07;3.47;;;16.70;90.50;;;;;;5115730;28;20044;-89
2021/07/03 07:03:15;;;;;;;7.35;3.50;;;16.70;90.30;;;;;;5116532;28;20135;-91
2021/07/03 07:05:40;;;;;;;6.85;3.47;;;16.80;90.30;;;;;;5125171;27;20130;-86
2021/07/03 07:08:06;;;;;;;8.63;3.72;;;16.80;90.10;;;;;;5133025;27;20474;-88
2021/07/03 07:10:31;;;;;;;9.93;3.58;;;16.80;90.10;;;;;;5136026;27;20043;-89
2021/07/03 07:13:03;;;;;;;7.68;3.33;;;16.90;90.10;;;;;;5116355;27;20392;-83
2021/07/03 07:15:28;;;;;;;6.00;3.55;;;17.00;90.10;;;;;;5119155;27;20544;-82
2021/07/03 07:17:54;;;;;;;7.43;3.47;;;17.00;90.00;;;;;;5123631;27;20055;-83
2021/07/03 07:20:20;;;;;;;11.80;4.20;;;17.00;90.00;;;;;;5120513;27;20050;-82
2021/07/03 07:22:45;;;;;;;11.27;5.32;;;17.20;90.20;;;;;;5120503;27;20074;-84
2021/07/03 07:25:11;;;;;;;8.82;4.18;;;17.20;90.10;;;;;;5117652;27;20063;-83
2021/07/03 07:27:37;;;;;;;10.40;4.90;;;17.30;90.00;;;;;;5122595;27;20476;-91
2021/07/03 07:30:05;;;;;;;9.20;4.70;;;17.40;90.10;;;;;;5134461;27;20091;-89
2021/07/03 07:32:31;;;;;;;9.57;3.58;;;17.50;90.00;;;;;;5127980;27;20075;-94
2021/07/03 07:34:58;;;;;;;9.13;4.45;;;17.50;89.80;;;;;;5117750;27;20066;-89
2021/07/03 07:37:26;;;;;;;13.63;6.18;;;17.60;89.80;;;;;;5129509;27;20478;-87
2021/07/03 07:39:52;;;;;;;14.00;5.47;;;17.60;90.00;;;;;;5137125;27;20047;-90
2021/07/03 07:42:17;;;;;;;12.20;6.10;;;17.70;89.90;;;;;;5137437;27;20064;-92
2021/07/03 07:44:43;;;;;;;11.48;5.13;;;17.70;90.00;;;;;;5137557;27;20200;-94
2021/07/03 07:47:09;;;;;;;14.43;6.38;;;17.80;89.80;;;;;;5125074;27;20122;-91
2021/07/03 07:49:35;;;;;;;11.93;6.40;;;17.80;90.00;;;;;;5128099;27;20047;-93
2021/07/03 07:52:01;;;;;;;11.23;6.10;;;17.90;89.90;;;;;;5137087;27;20050;-95
2021/07/03 07:54:27;;;;;;;9.82;4.53;;;18.00;89.90;;;;;;5122163;28;20060;-91
2021/07/03 07:56:52;;;;;;;9.52;4.32;;;18.00;89.50;;;;;;5127354;28;20058;-90
2021/07/03 07:59:18;;;;;;;8.00;3.72;;;18.00;89.40;;;;;;5127055;28;20058;-91
2021/07/03 08:01:44;;;;;;;8.20;4.25;;;18.10;89.10;;;;;;5130544;27;20108;-91
2021/07/03 08:04:09;;;;;;;11.25;5.90;;;18.10;88.80;;;;;;5139021;27;20047;-93
2021/07/03 08:06:35;;;;;;;10.82;5.55;;;18.20;89.70;;;;;;5128213;27;20506;-90
2021/07/03 08:09:00;;;;;;;9.23;4.40;;;18.20;90.00;;;;;;5125385;27;20071;-91
2021/07/03 08:11:26;;;;;;;17.05;6.80;;;18.30;89.70;;;;;;5124903;27;20074;-92
2021/07/03 08:13:52;;;;;;;15.43;6.68;;;18.40;89.70;;;;;;5123201;27;20483;-91
2021/07/03 08:16:18;;;;;;;12.05;7.03;;;18.50;89.60;;;;;;5127101;27;20047;-90
2021/07/03 08:18:43;;;;;;;12.93;6.70;;;18.60;89.10;;;;;;5123431;27;20043;-91
2021/07/03 08:21:09;;;;;;;13.50;7.38;;;18.70;89.00;;;;;;5121564;27;20103;-90
2021/07/03 08:23:35;;;;;;;13.27;7.63;;;18.80;88.70;;;;;;5120975;27;20046;-93
2021/07/03 08:26:00;;;;;;;11.32;6.75;;;18.90;88.50;;;;;;5136481;27;20134;-95
2021/07/03 08:28:26;;;;;;;11.57;6.30;;;19.00;88.40;;;;;;5136558;27;20159;-93
2021/07/03 08:30:52;;;;;;;14.38;8.32;;;19.00;88.30;;;;;;5136370;27;20058;-94
2021/07/03 08:33:18;;;;;;;10.00;6.15;;;19.10;88.20;;;;;;5135379;27;20104;-90
2021/07/03 08:35:43;;;;;;;12.57;6.40;;;19.20;87.70;;;;;;5127345;27;20135;-92
2021/07/03 08:38:09;;;;;;;14.50;7.65;;;19.30;87.50;;;;;;5114545;28;20060;-92
2021/07/03 08:40:35;;;;;;;12.45;6.97;;;19.40;87.60;;;;;;5113855;28;20069;-89
2021/07/03 08:43:01;;;;;;;8.15;4.88;;;19.50;87.20;;;;;;5114354;28;20055;-91
2021/07/03 08:45:26;;;;;;;12.52;7.43;;;19.50;87.00;;;;;;5113871;28;20043;-89
2021/07/03 08:47:52;;;;;;;8.15;5.05;;;19.60;87.40;;;;;;5113632;28;20491;-88
2021/07/03 08:50:19;;;;;;;8.68;5.55;;;19.70;87.00;;;;;;5116857;28;20052;-83
2021/07/03 08:52:45;;;;;;;15.10;8.90;;;19.80;86.70;;;;;;5113920;28;20052;-91
2021/07/03 08:55:14;;;;;;;16.42;9.75;;;19.90;86.40;;;;;;5114892;28;20130;-93
2021/07/03 08:57:51;;;;;;;16.33;9.85;;;19.90;85.90;;;;;;5124566;28;20099;-90
2021/07/03 09:00:35;;;;;;;21.52;10.60;;;20.00;85.30;;;;;;5133663;28;20380;-91
2021/07/03 09:03:09;;;;;;;12.63;8.13;;;20.10;85.10;;;;;;5134270;28;20239;-89
2021/07/03 09:05:34;;;;;;;12.23;7.10;;;20.20;85.30;;;;;;5134747;28;20043;-91
2021/07/03 09:08:08;;;;;;;13.75;7.22;;;20.30;85.30;;;;;;5133944;28;20486;-90
2021/07/03 09:10:36;;;;;;;13.80;8.00;;;20.40;85.10;;;;;;5134647;28;20054;-89
2021/07/03 09:13:03;;;;;;;15.55;9.00;;;20.50;84.90;;;;;;5134839;28;20088;-91
2021/07/03 09:15:38;;;;;;;11.05;7.78;;;20.50;84.70;;;;;;5133709;28;20051;-90
2021/07/03 09:18:13;;;;;;;11.65;7.20;;;20.60;85.10;;;;;;5134962;28;20051;-91
2021/07/03 09:20:52;;;;;;;13.80;8.07;;;20.60;85.20;;;;;;5134312;28;20065;-91
2021/07/03 09:23:21;;;;;;;13.77;8.75;;;20.70;85.20;;;;;;5134392;28;20584;-92
2021/07/03 09:25:50;;;;;;;12.75;7.35;;;20.80;85.50;;;;;;5134468;28;20526;-92
2021/07/03 09:28:28;;;;;;;12.70;7.10;;;20.90;84.90;;;;;;5133488;28;20059;-92
2021/07/03 09:30:56;;;;;;;15.98;10.50;;;21.00;84.60;;;;;;5135349;28;20047;-90
2021/07/03 09:33:48;;;;;;;15.30;10.32;;;21.10;83.20;;;;;;5134255;28;20047;-91
2021/07/03 09:36:25;;;;;;;12.57;8.57;;;21.10;82.80;;;;;;5133945;28;20046;-91
2021/07/03 09:38:53;;;;;;;12.27;7.60;;;21.20;82.90;;;;;;5134371;28;20563;-91
2021/07/03 09:41:25;;;;;;;12.02;7.25;;;21.30;83.40;;;;;;5134056;28;20043;-90
2021/07/03 09:43:50;;;;;;;12.63;7.95;;;21.50;83.40;;;;;;5133751;28;20452;-90
2021/07/03 09:46:34;;;;;;;15.05;8.77;;;21.60;83.10;;;;;;5134438;27;20039;-91
2021/07/03 09:49:12;;;;;;;10.85;7.90;;;21.70;82.40;;;;;;5137556;27;20054;-90
2021/07/03 09:51:49;;;;;;;12.60;7.25;;;21.80;82.60;;;;;;5138217;27;20043;-91
2021/07/03 09:54:17;;;;;;;11.75;7.50;;;21.80;83.50;;;;;;5138061;27;20171;-90
2021/07/03 09:56:44;;;;;;;11.55;7.80;;;21.90;83.60;;;;;;5137380;27;20039;-91
2021/07/03 09:59:10;;;;;;;10.18;7.00;;;22.00;83.60;;;;;;5137785;27;20050;-92
2021/07/03 10:01:40;;;;;;;11.57;7.18;;;22.10;82.80;;;;;;5137803;27;20375;-89
2021/07/03 10:04:10;;;;;;;11.48;8.07;;;22.10;82.20;;;;;;5137170;27;20142;-91
2021/07/03 10:06:55;;;;;;;12.88;7.50;;;22.20;81.30;;;;;;5137572;27;20130;-89
2021/07/03 10:09:44;;;;;;;9.77;7.35;;;22.20;82.60;;;;;;5137679;27;20418;-89
2021/07/03 10:12:14;;;;;;;10.20;6.97;;;22.30;83.20;;;;;;5137424;27;20122;-89
2021/07/03 10:14:43;;;;;;;10.40;7.13;;;22.40;83.30;;;;;;5137463;27;20065;-90
2021/07/03 10:17:09;;;;;;;10.57;6.97;;;22.40;82.80;;;;;;5137122;27;20148;-88
2021/07/03 10:19:40;;;;;;;11.95;6.95;;;22.50;82.90;;;;;;5137132;27;20100;-90
2021/07/03 10:22:23;;;;;;;9.45;6.57;;;22.60;81.80;;;;;;5137377;27;20053;-91
2021/07/03 10:24:54;;;;;;;9.93;6.30;;;22.70;82.10;;;;;;5137369;27;20058;-91
2021/07/03 10:27:24;;;;;;;9.80;6.90;;;22.70;78.90;;;;;;5137431;27;20043;-89
2021/07/03 10:29:53;;;;;;;10.90;7.07;;;22.80;79.60;;;;;;5137575;27;20075;-91
2021/07/03 10:32:36;;;;;;;11.07;6.40;;;22.90;81.30;;;;;;5136664;27;20092;-91
2021/07/03 10:35:16;;;;;;;12.75;6.65;;;22.90;81.40;;;;;;5137816;27;20054;-90
2021/07/03 10:37:42;;;;;;;11.82;6.95;;;23.00;77.90;;;;;;5136925;27;20104;-91
2021/07/03 10:40:17;;;;;;;13.82;7.15;;;23.00;80.00;;;;;;5136480;27;20103;-91
2021/07/03 10:42:43;;;;;;;10.05;6.70;;;23.10;77.40;;;;;;5137014;27;20043;-91
2021/07/03 10:45:11;;;;;;;12.73;7.05;;;23.10;77.90;;;;;;5136080;27;20049;-91
2021/07/03 10:47:39;;;;;;;10.82;6.28;;;23.20;80.00;;;;;;5136796;27;20118;-92
2021/07/03 10:50:24;;;;;;;12.98;6.65;;;23.20;81.30;;;;;;5137576;27;20043;-90
2021/07/03 10:52:52;;;;;;;10.10;5.80;;;23.30;78.50;;;;;;5136340;27;20127;-92
2021/07/03 10:55:40;;;;;;;9.73;6.05;;;23.30;77.30;;;;;;5136734;27;20067;-88
2021/07/03 10:58:14;;;;;;;8.50;5.35;;;23.30;79.30;;;;;;5136077;27;20047;-91
2021/07/03 11:00:40;;;;;;;7.00;4.68;;;23.40;77.00;;;;;;5135395;27;20043;-91
2021/07/03 11:03:13;;;;;;;7.72;5.38;;;23.40;75.90;;;;;;5136289;27;20434;-91
2021/07/03 11:05:39;;;;;;;9.00;5.00;;;23.50;77.60;;;;;;5135775;27;20092;-89
2021/07/03 11:08:12;;;;;;;10.25;5.55;;;23.50;76.10;;;;;;5136062;27;20058;-92
2021/07/03 11:10:39;;;;;;;9.85;5.65;;;23.60;75.60;;;;;;5136619;27;20081;-93
2021/07/03 11:13:04;;;;;;;9.40;5.78;;;23.70;74.90;;;;;;5136983;27;20050;-93
2021/07/03 11:15:30;;;;;;;9.45;5.30;;;23.70;76.80;;;;;;5136511;27;20039;-93
2021/07/03 11:17:58;;;;;;;9.10;5.07;;;23.80;73.80;;;;;;5139371;27;20043;-95
2021/07/03 11:20:29;;;;;;;9.38;4.85;;;23.90;71.70;;;;;;5137417;27;20047;-95
2021/07/03 11:22:55;;;;;;;10.00;5.47;;;24.00;74.90;;;;;;5138160;27;20054;-95
2021/07/03 11:25:32;;;;;;;7.82;5.30;;;24.00;77.30;;;;;;5137607;27;20050;-96
2021/07/03 11:28:17;;;;;;;9.23;5.55;;;24.10;79.10;;;;;;5136654;27;20055;-94
2021/07/03 11:30:47;;;;;;;9.93;5.28;;;24.20;80.20;;;;;;5137959;27;20126;-95
2021/07/03 11:33:14;;;;;;;9.23;5.28;;;24.30;80.80;;;;;;5139466;27;20047;-95
2021/07/03 11:35:46;;;;;;;8.05;5.22;;;24.30;81.20;;;;;;5138484;27;20171;-93
2021/07/03 11:38:13;;;;;;;7.55;4.32;;;24.40;81.60;;;;;;5138171;27;20447;-94
2021/07/03 11:40:40;;;;;;;7.75;4.60;;;24.40;76.50;;;;;;5137812;27;20047;-96
2021/07/03 11:43:07;;;;;;;8.57;4.70;;;24.40;72.80;;;;;;5133855;27;20497;-95
2021/07/03 11:45:36;;;;;;;8.18;4.30;;;24.40;76.20;;;;;;5128867;27;20071;-94
2021/07/03 11:48:13;;;;;;;9.02;4.55;;;24.50;72.50;;;;;;5137368;27;20058;-94
2021/07/03 11:50:40;;;;;;;8.50;4.95;;;24.50;71.40;;;;;;5137704;27;20043;-95
2021/07/03 11:53:10;;;;;;;8.55;4.28;;;24.50;73.90;;;;;;5139815;27;20418;-95
2021/07/03 11:55:45;;;;;;;8.73;4.65;;;24.50;74.60;;;;;;5138009;27;20060;-93
2021/07/03 11:58:15;;;;;;;7.05;4.40;;;24.50;75.10;;;;;;5138513;27;20487;-95
2021/07/03 12:00:46;;;;;;;8.55;4.50;;;24.60;74.50;;;;;;5136650;27;20047;-90
2021/07/03 12:03:13;;;;;;;6.95;4.53;;;24.60;71.10;;;;;;5122037;27;20043;-89
2021/07/03 12:05:44;;;;;;;8.15;4.68;;;24.70;73.40;;;;;;5131120;27;20399;-88
2021/07/03 12:08:14;;;;;;;8.60;4.53;;;24.70;73.10;;;;;;5134760;27;20066;-89
2021/07/03 12:10:45;;;;;;;7.63;4.10;;;24.70;68.90;;;;;;5133544;27;20058;-90
2021/07/03 12:13:21;;;;;;;8.95;4.45;;;24.80;70.30;;;;;;5134993;27;20074;-90
2021/07/03 12:15:49;;;;;;;9.00;4.50;;;24.80;69.50;;;;;;5134832;27;20051;-87
2021/07/03 12:18:39;;;;;;;8.88;4.03;;;24.90;74.10;;;;;;5134207;27;20518;-92
2021/07/03 12:21:06;;;;;;;8.43;4.10;;;25.00;74.60;;;;;;5135114;27;20086;-91
2021/07/03 12:23:34;;;;;;;7.45;4.47;;;25.00;73.50;;;;;;5134087;27;20054;-90
2021/07/03 12:26:02;;;;;;;7.30;4.15;;;25.00;73.70;;;;;;5128219;27;20057;-90
2021/07/03 12:28:28;;;;;;;9.07;4.15;;;25.00;75.70;;;;;;5126007;27;20082;-90
2021/07/03 12:31:15;;;;;;;8.23;4.45;;;25.10;73.20;;;;;;5087905;27;20153;-90
2021/07/03 12:33:40;;;;;;;7.75;4.47;;;25.10;71.60;;;;;;5123813;27;20130;-90
2021/07/03 12:36:17;;;;;;;6.30;3.95;;;25.10;73.30;;;;;;5124921;27;20476;-88
2021/07/03 12:38:42;;;;;;;7.40;4.25;;;25.20;67.20;;;;;;5121324;27;20062;-89
2021/07/03 12:41:14;;;;;;;9.02;4.10;;;25.20;68.70;;;;;;5125181;27;20445;-89
2021/07/03 12:43:40;;;;;;;8.85;4.18;;;25.20;67.00;;;;;;5123240;28;20043;-89
2021/07/03 12:46:07;;;;;;;8.23;4.53;;;25.30;70.20;;;;;;5126311;28;20513;-88
2021/07/03 12:48:35;;;;;;;8.73;4.25;;;25.30;70.90;;;;;;5131731;28;20047;-94